sensor_id;sensor_type;location;lat;lon;timestamp;P1;durP1;ratioP1;P2;durP2;ratioP2
9716;SDS011;4897;43.570;27.832;2023-08-06T00:02:04;16.35;;;11.48;;
9716;SDS011;4897;43.570;27.832;2023-08-06T00:04:33;16.92;;;11.77;;
9716;SDS011;4897;43.570;27.832;2023-08-06T00:07:00;20.30;;;11.77;;
9716;SDS011;4897;43.570;27.832;2023-08-06T00:09:27;17.67;;;12.10;;
9716;SDS011;4897;43.570;27.832;2023-08-06T00:11:55;16.98;;;12.45;;
9716;SDS011;4897;43.570;27.832;2023-08-06T00:14:22;15.32;;;11.10;;
9716;SDS011;4897;43.570;27.832;2023-08-06T00:16:50;14.38;;;11.48;;
9716;SDS011;4897;43.570;27.832;2023-08-06T00:19:18;20.45;;;12.00;;
9716;SDS011;4897;43.570;27.832;2023-08-06T00:21:44;18.73;;;12.40;;
9716;SDS011;4897;43.570;27.832;2023-08-06T00:24:11;22.80;;;12.40;;
9716;SDS011;4897;43.570;27.832;2023-08-06T00:26:39;19.00;;;11.23;;
9716;SDS011;4897;43.570;27.832;2023-08-06T00:29:05;16.70;;;11.82;;
9716;SDS011;4897;43.570;27.832;2023-08-06T00:31:35;19.00;;;12.07;;
9716;SDS011;4897;43.570;27.832;2023-08-06T00:34:03;17.23;;;11.57;;
9716;SDS011;4897;43.570;27.832;2023-08-06T00:36:30;16.90;;;12.55;;
9716;SDS011;4897;43.570;27.832;2023-08-06T00:38:57;19.42;;;11.82;;
9716;SDS011;4897;43.570;27.832;2023-08-06T00:41:24;20.70;;;11.75;;
9716;SDS011;4897;43.570;27.832;2023-08-06T00:43:50;16.27;;;11.32;;
9716;SDS011;4897;43.570;27.832;2023-08-06T00:46:17;19.00;;;11.82;;
9716;SDS011;4897;43.570;27.832;2023-08-06T00:48:47;17.33;;;10.70;;
9716;SDS011;4897;43.570;27.832;2023-08-06T00:51:16;14.07;;;10.98;;
9716;SDS011;4897;43.570;27.832;2023-08-06T00:53:43;16.30;;;11.68;;
9716;SDS011;4897;43.570;27.832;2023-08-06T00:56:10;16.98;;;11.68;;
9716;SDS011;4897;43.570;27.832;2023-08-06T00:58:38;16.17;;;10.52;;
9716;SDS011;4897;43.570;27.832;2023-08-06T01:01:05;20.58;;;11.88;;
9716;SDS011;4897;43.570;27.832;2023-08-06T01:03:32;16.05;;;11.48;;
9716;SDS011;4897;43.570;27.832;2023-08-06T01:05:59;15.00;;;10.43;;
9716;SDS011;4897;43.570;27.832;2023-08-06T01:08:30;19.85;;;10.48;;
9716;SDS011;4897;43.570;27.832;2023-08-06T01:11:14;20.25;;;11.07;;
9716;SDS011;4897;43.570;27.832;2023-08-06T01:13:47;17.33;;;11.07;;
9716;SDS011;4897;43.570;27.832;2023-08-06T01:16:17;21.23;;;11.25;;
9716;SDS011;4897;43.570;27.832;2023-08-06T01:18:46;19.00;;;11.57;;
9716;SDS011;4897;43.570;27.832;2023-08-06T01:21:18;19.30;;;10.95;;
9716;SDS011;4897;43.570;27.832;2023-08-06T01:23:45;16.85;;;11.80;;
9716;SDS011;4897;43.570;27.832;2023-08-06T01:26:15;21.58;;;10.48;;
9716;SDS011;4897;43.570;27.832;2023-08-06T01:28:58;16.52;;;11.35;;
9716;SDS011;4897;43.570;27.832;2023-08-06T01:31:30;18.58;;;10.75;;
9716;SDS011;4897;43.570;27.832;2023-08-06T01:33:58;17.88;;;11.23;;
9716;SDS011;4897;43.570;27.832;2023-08-06T01:36:28;18.67;;;10.45;;
9716;SDS011;4897;43.570;27.832;2023-08-06T01:38:57;20.45;;;10.73;;
9716;SDS011;4897;43.570;27.832;2023-08-06T01:41:24;17.40;;;11.18;;
9716;SDS011;4897;43.570;27.832;2023-08-06T01:43:51;16.15;;;10.55;;
9716;SDS011;4897;43.570;27.832;2023-08-06T01:46:18;17.55;;;10.85;;
9716;SDS011;4897;43.570;27.832;2023-08-06T01:48:50;18.00;;;10.70;;
9716;SDS011;4897;43.570;27.832;2023-08-06T01:51:20;13.52;;;9.63;;
9716;SDS011;4897;43.570;27.832;2023-08-06T01:53:49;19.13;;;10.90;;
9716;SDS011;4897;43.570;27.832;2023-08-06T01:56:16;13.57;;;10.10;;
9716;SDS011;4897;43.570;27.832;2023-08-06T01:58:44;19.95;;;10.45;;
9716;SDS011;4897;43.570;27.832;2023-08-06T02:01:10;16.35;;;9.80;;
9716;SDS011;4897;43.570;27.832;2023-08-06T02:03:37;15.23;;;10.40;;
9716;SDS011;4897;43.570;27.832;2023-08-06T02:06:04;18.75;;;10.63;;
9716;SDS011;4897;43.570;27.832;2023-08-06T02:08:31;15.75;;;9.98;;
9716;SDS011;4897;43.570;27.832;2023-08-06T02:11:03;26.98;;;10.52;;
9716;SDS011;4897;43.570;27.832;2023-08-06T02:13:30;18.92;;;10.55;;
9716;SDS011;4897;43.570;27.832;2023-08-06T02:16:00;16.15;;;10.55;;
9716;SDS011;4897;43.570;27.832;2023-08-06T02:18:27;15.55;;;10.80;;
9716;SDS011;4897;43.570;27.832;2023-08-06T02:20:57;14.35;;;10.45;;
9716;SDS011;4897;43.570;27.832;2023-08-06T02:23:25;15.15;;;10.38;;
9716;SDS011;4897;43.570;27.832;2023-08-06T02:25:58;18.40;;;10.55;;
9716;SDS011;4897;43.570;27.832;2023-08-06T02:28:27;18.05;;;10.82;;
9716;SDS011;4897;43.570;27.832;2023-08-06T02:30:54;15.55;;;10.52;;
9716;SDS011;4897;43.570;27.832;2023-08-06T02:33:22;17.30;;;10.80;;
9716;SDS011;4897;43.570;27.832;2023-08-06T02:35:49;19.80;;;10.68;;
9716;SDS011;4897;43.570;27.832;2023-08-06T02:38:16;20.45;;;10.82;;
9716;SDS011;4897;43.570;27.832;2023-08-06T02:40:43;19.08;;;11.32;;
9716;SDS011;4897;43.570;27.832;2023-08-06T02:43:14;22.60;;;12.35;;
9716;SDS011;4897;43.570;27.832;2023-08-06T02:45:41;17.23;;;11.27;;
9716;SDS011;4897;43.570;27.832;2023-08-06T02:48:08;18.40;;;11.43;;
9716;SDS011;4897;43.570;27.832;2023-08-06T02:50:38;22.70;;;11.38;;
9716;SDS011;4897;43.570;27.832;2023-08-06T02:53:05;16.70;;;10.75;;
9716;SDS011;4897;43.570;27.832;2023-08-06T02:55:32;20.33;;;12.35;;
9716;SDS011;4897;43.570;27.832;2023-08-06T02:58:00;18.00;;;11.02;;
9716;SDS011;4897;43.570;27.832;2023-08-06T03:00:28;20.83;;;11.10;;
9716;SDS011;4897;43.570;27.832;2023-08-06T03:02:55;17.90;;;11.05;;
9716;SDS011;4897;43.570;27.832;2023-08-06T03:05:22;16.48;;;11.15;;
9716;SDS011;4897;43.570;27.832;2023-08-06T03:07:49;16.58;;;10.80;;
9716;SDS011;4897;43.570;27.832;2023-08-06T03:10:16;25.88;;;12.02;;
9716;SDS011;4897;43.570;27.832;2023-08-06T03:12:43;18.45;;;12.18;;
9716;SDS011;4897;43.570;27.832;2023-08-06T03:15:10;21.38;;;12.43;;
9716;SDS011;4897;43.570;27.832;2023-08-06T03:17:39;16.95;;;11.50;;
9716;SDS011;4897;43.570;27.832;2023-08-06T03:20:07;20.95;;;11.65;;
9716;SDS011;4897;43.570;27.832;2023-08-06T03:22:35;21.35;;;12.45;;
9716;SDS011;4897;43.570;27.832;2023-08-06T03:25:03;21.00;;;12.02;;
9716;SDS011;4897;43.570;27.832;2023-08-06T03:27:30;16.42;;;11.65;;
9716;SDS011;4897;43.570;27.832;2023-08-06T03:29:57;17.35;;;12.05;;
9716;SDS011;4897;43.570;27.832;2023-08-06T03:32:26;19.33;;;11.43;;
9716;SDS011;4897;43.570;27.832;2023-08-06T03:34:54;19.20;;;12.60;;
9716;SDS011;4897;43.570;27.832;2023-08-06T03:37:21;20.15;;;12.55;;
9716;SDS011;4897;43.570;27.832;2023-08-06T03:39:48;20.25;;;12.50;;
9716;SDS011;4897;43.570;27.832;2023-08-06T03:42:18;18.42;;;11.70;;
9716;SDS011;4897;43.570;27.832;2023-08-06T03:44:45;13.07;;;11.68;;
9716;SDS011;4897;43.570;27.832;2023-08-06T03:47:12;20.30;;;12.20;;
9716;SDS011;4897;43.570;27.832;2023-08-06T03:49:39;15.80;;;11.38;;
9716;SDS011;4897;43.570;27.832;2023-08-06T03:52:08;17.15;;;11.68;;
9716;SDS011;4897;43.570;27.832;2023-08-06T03:54:37;21.40;;;11.98;;
9716;SDS011;4897;43.570;27.832;2023-08-06T03:57:05;19.13;;;11.77;;
9716;SDS011;4897;43.570;27.832;2023-08-06T03:59:32;23.20;;;11.93;;
9716;SDS011;4897;43.570;27.832;2023-08-06T04:01:59;21.25;;;11.45;;
9716;SDS011;4897;43.570;27.832;2023-08-06T04:04:26;16.20;;;11.00;;
9716;SDS011;4897;43.570;27.832;2023-08-06T04:06:53;15.07;;;10.20;;
9716;SDS011;4897;43.570;27.832;2023-08-06T04:09:21;18.60;;;10.93;;
9716;SDS011;4897;43.570;27.832;2023-08-06T04:11:48;20.73;;;10.93;;
9716;SDS011;4897;43.570;27.832;2023-08-06T04:14:15;12.25;;;9.55;;
9716;SDS011;4897;43.570;27.832;2023-08-06T04:16:42;17.73;;;10.18;;
9716;SDS011;4897;43.570;27.832;2023-08-06T04:19:09;19.65;;;10.23;;
9716;SDS011;4897;43.570;27.832;2023-08-06T04:21:36;16.58;;;9.90;;
9716;SDS011;4897;43.570;27.832;2023-08-06T04:24:03;15.45;;;9.50;;
9716;SDS011;4897;43.570;27.832;2023-08-06T04:26:37;12.32;;;9.25;;
9716;SDS011;4897;43.570;27.832;2023-08-06T04:29:04;18.67;;;9.35;;
9716;SDS011;4897;43.570;27.832;2023-08-06T04:31:31;16.25;;;9.73;;
9716;SDS011;4897;43.570;27.832;2023-08-06T04:33:58;14.30;;;8.73;;
9716;SDS011;4897;43.570;27.832;2023-08-06T04:36:25;16.23;;;9.43;;
9716;SDS011;4897;43.570;27.832;2023-08-06T04:38:52;14.00;;;9.93;;
9716;SDS011;4897;43.570;27.832;2023-08-06T04:41:19;13.48;;;9.05;;
9716;SDS011;4897;43.570;27.832;2023-08-06T04:43:47;15.40;;;9.10;;
9716;SDS011;4897;43.570;27.832;2023-08-06T04:46:14;12.90;;;8.63;;
9716;SDS011;4897;43.570;27.832;2023-08-06T04:48:41;13.05;;;8.63;;
9716;SDS011;4897;43.570;27.832;2023-08-06T04:51:08;12.85;;;8.10;;
9716;SDS011;4897;43.570;27.832;2023-08-06T04:53:35;11.32;;;8.18;;
9716;SDS011;4897;43.570;27.832;2023-08-06T04:56:02;14.68;;;9.55;;
9716;SDS011;4897;43.570;27.832;2023-08-06T04:58:30;15.80;;;8.70;;
9716;SDS011;4897;43.570;27.832;2023-08-06T05:00:58;12.80;;;8.48;;
9716;SDS011;4897;43.570;27.832;2023-08-06T05:03:27;12.18;;;8.20;;
9716;SDS011;4897;43.570;27.832;2023-08-06T05:05:54;14.95;;;9.27;;
9716;SDS011;4897;43.570;27.832;2023-08-06T05:08:21;12.50;;;9.30;;
9716;SDS011;4897;43.570;27.832;2023-08-06T05:10:48;17.55;;;9.00;;
9716;SDS011;4897;43.570;27.832;2023-08-06T05:13:15;11.32;;;8.10;;
9716;SDS011;4897;43.570;27.832;2023-08-06T05:15:42;12.05;;;8.13;;
9716;SDS011;4897;43.570;27.832;2023-08-06T05:18:12;11.32;;;8.00;;
9716;SDS011;4897;43.570;27.832;2023-08-06T05:20:40;10.45;;;7.32;;
9716;SDS011;4897;43.570;27.832;2023-08-06T05:23:08;11.73;;;7.53;;
9716;SDS011;4897;43.570;27.832;2023-08-06T05:25:35;13.00;;;7.93;;
9716;SDS011;4897;43.570;27.832;2023-08-06T05:28:02;12.00;;;7.60;;
9716;SDS011;4897;43.570;27.832;2023-08-06T05:30:30;10.43;;;7.50;;
9716;SDS011;4897;43.570;27.832;2023-08-06T05:33:02;8.88;;;7.32;;
9716;SDS011;4897;43.570;27.832;2023-08-06T05:35:30;12.32;;;7.38;;
9716;SDS011;4897;43.570;27.832;2023-08-06T05:37:57;10.85;;;7.13;;
9716;SDS011;4897;43.570;27.832;2023-08-06T05:40:24;10.98;;;6.47;;
9716;SDS011;4897;43.570;27.832;2023-08-06T05:42:51;10.70;;;6.78;;
9716;SDS011;4897;43.570;27.832;2023-08-06T05:45:20;10.32;;;6.38;;
9716;SDS011;4897;43.570;27.832;2023-08-06T05:47:47;11.35;;;6.28;;
9716;SDS011;4897;43.570;27.832;2023-08-06T05:50:14;9.15;;;6.10;;
9716;SDS011;4897;43.570;27.832;2023-08-06T05:52:43;12.13;;;5.93;;
9716;SDS011;4897;43.570;27.832;2023-08-06T05:55:10;8.70;;;6.25;;
9716;SDS011;4897;43.570;27.832;2023-08-06T05:57:37;7.60;;;6.00;;
9716;SDS011;4897;43.570;27.832;2023-08-06T06:00:04;8.55;;;5.43;;
9716;SDS011;4897;43.570;27.832;2023-08-06T06:02:31;8.15;;;5.90;;
9716;SDS011;4897;43.570;27.832;2023-08-06T06:04:58;9.55;;;6.05;;
9716;SDS011;4897;43.570;27.832;2023-08-06T06:07:25;9.45;;;5.97;;
9716;SDS011;4897;43.570;27.832;2023-08-06T06:09:59;8.75;;;5.75;;
9716;SDS011;4897;43.570;27.832;2023-08-06T06:12:28;8.75;;;5.55;;
9716;SDS011;4897;43.570;27.832;2023-08-06T06:15:06;9.30;;;6.03;;
9716;SDS011;4897;43.570;27.832;2023-08-06T06:17:36;7.00;;;5.38;;
9716;SDS011;4897;43.570;27.832;2023-08-06T06:20:06;8.57;;;5.75;;
9716;SDS011;4897;43.570;27.832;2023-08-06T06:22:33;10.10;;;6.80;;
9716;SDS011;4897;43.570;27.832;2023-08-06T06:25:02;13.18;;;7.50;;
9716;SDS011;4897;43.570;27.832;2023-08-06T06:27:29;8.73;;;5.93;;
9716;SDS011;4897;43.570;27.832;2023-08-06T06:29:56;11.05;;;5.00;;
9716;SDS011;4897;43.570;27.832;2023-08-06T06:32:23;6.38;;;4.60;;
9716;SDS011;4897;43.570;27.832;2023-08-06T06:34:50;6.53;;;4.07;;
9716;SDS011;4897;43.570;27.832;2023-08-06T06:37:16;10.07;;;5.13;;
9716;SDS011;4897;43.570;27.832;2023-08-06T06:39:45;5.85;;;4.55;;
9716;SDS011;4897;43.570;27.832;2023-08-06T06:42:13;6.28;;;4.32;;
9716;SDS011;4897;43.570;27.832;2023-08-06T06:44:41;6.07;;;4.38;;
9716;SDS011;4897;43.570;27.832;2023-08-06T06:47:08;7.25;;;4.65;;
9716;SDS011;4897;43.570;27.832;2023-08-06T06:49:35;5.53;;;4.40;;
9716;SDS011;4897;43.570;27.832;2023-08-06T06:52:02;7.40;;;4.72;;
9716;SDS011;4897;43.570;27.832;2023-08-06T06:54:29;5.60;;;4.50;;
9716;SDS011;4897;43.570;27.832;2023-08-06T06:56:56;9.73;;;4.38;;
9716;SDS011;4897;43.570;27.832;2023-08-06T06:59:24;7.35;;;4.93;;
9716;SDS011;4897;43.570;27.832;2023-08-06T07:01:51;8.15;;;4.95;;
9716;SDS011;4897;43.570;27.832;2023-08-06T07:04:18;7.35;;;4.80;;
9716;SDS011;4897;43.570;27.832;2023-08-06T07:06:45;7.95;;;4.80;;
9716;SDS011;4897;43.570;27.832;2023-08-06T07:09:12;7.78;;;4.60;;
9716;SDS011;4897;43.570;27.832;2023-08-06T07:11:39;6.18;;;4.65;;
9716;SDS011;4897;43.570;27.832;2023-08-06T07:14:08;6.95;;;4.80;;
9716;SDS011;4897;43.570;27.832;2023-08-06T07:16:37;7.05;;;4.30;;
9716;SDS011;4897;43.570;27.832;2023-08-06T07:19:04;7.22;;;4.20;;
9716;SDS011;4897;43.570;27.832;2023-08-06T07:21:31;7.43;;;4.35;;
9716;SDS011;4897;43.570;27.832;2023-08-06T07:23:58;5.43;;;4.07;;
9716;SDS011;4897;43.570;27.832;2023-08-06T07:26:25;6.28;;;4.60;;
9716;SDS011;4897;43.570;27.832;2023-08-06T07:28:52;6.20;;;4.28;;
9716;SDS011;4897;43.570;27.832;2023-08-06T07:31:19;5.43;;;3.95;;
9716;SDS011;4897;43.570;27.832;2023-08-06T07:33:47;9.07;;;4.30;;
9716;SDS011;4897;43.570;27.832;2023-08-06T07:36:16;8.60;;;4.18;;
9716;SDS011;4897;43.570;27.832;2023-08-06T07:38:43;7.07;;;4.05;;
9716;SDS011;4897;43.570;27.832;2023-08-06T07:41:10;8.13;;;4.28;;
9716;SDS011;4897;43.570;27.832;2023-08-06T07:43:37;6.65;;;4.32;;
9716;SDS011;4897;43.570;27.832;2023-08-06T07:46:04;6.38;;;3.95;;
9716;SDS011;4897;43.570;27.832;2023-08-06T07:48:31;5.47;;;4.05;;
9716;SDS011;4897;43.570;27.832;2023-08-06T07:51:00;5.57;;;3.70;;
9716;SDS011;4897;43.570;27.832;2023-08-06T07:53:26;19.15;;;4.65;;
9716;SDS011;4897;43.570;27.832;2023-08-06T07:55:54;6.57;;;4.18;;
9716;SDS011;4897;43.570;27.832;2023-08-06T07:58:23;5.65;;;3.60;;
9716;SDS011;4897;43.570;27.832;2023-08-06T08:00:50;5.30;;;3.50;;
9716;SDS011;4897;43.570;27.832;2023-08-06T08:03:17;4.97;;;3.40;;
9716;SDS011;4897;43.570;27.832;2023-08-06T08:05:45;6.57;;;3.40;;
9716;SDS011;4897;43.570;27.832;2023-08-06T08:08:13;5.40;;;3.70;;
9716;SDS011;4897;43.570;27.832;2023-08-06T08:10:40;5.00;;;3.55;;
9716;SDS011;4897;43.570;27.832;2023-08-06T08:13:08;5.30;;;3.58;;
9716;SDS011;4897;43.570;27.832;2023-08-06T08:15:35;4.63;;;3.70;;
9716;SDS011;4897;43.570;27.832;2023-08-06T08:18:02;6.57;;;3.45;;
9716;SDS011;4897;43.570;27.832;2023-08-06T08:20:29;5.03;;;3.50;;
9716;SDS011;4897;43.570;27.832;2023-08-06T08:22:58;5.00;;;3.63;;
9716;SDS011;4897;43.570;27.832;2023-08-06T08:25:27;5.40;;;3.60;;
9716;SDS011;4897;43.570;27.832;2023-08-06T08:27:54;7.10;;;3.70;;
9716;SDS011;4897;43.570;27.832;2023-08-06T08:30:21;6.68;;;3.38;;
9716;SDS011;4897;43.570;27.832;2023-08-06T08:32:50;6.43;;;3.38;;
9716;SDS011;4897;43.570;27.832;2023-08-06T08:35:17;4.75;;;3.22;;
9716;SDS011;4897;43.570;27.832;2023-08-06T08:37:44;5.07;;;3.40;;
9716;SDS011;4897;43.570;27.832;2023-08-06T08:40:11;5.57;;;3.53;;
9716;SDS011;4897;43.570;27.832;2023-08-06T08:42:45;8.18;;;5.43;;
9716;SDS011;4897;43.570;27.832;2023-08-06T08:45:13;6.55;;;3.55;;
9716;SDS011;4897;43.570;27.832;2023-08-06T08:47:41;6.38;;;3.30;;
9716;SDS011;4897;43.570;27.832;2023-08-06T08:50:09;5.93;;;3.90;;
9716;SDS011;4897;43.570;27.832;2023-08-06T08:52:38;6.95;;;3.80;;
9716;SDS011;4897;43.570;27.832;2023-08-06T08:55:06;5.20;;;3.25;;
9716;SDS011;4897;43.570;27.832;2023-08-06T08:57:34;4.88;;;3.10;;
9716;SDS011;4897;43.570;27.832;2023-08-06T09:00:05;4.70;;;3.30;;
9716;SDS011;4897;43.570;27.832;2023-08-06T09:02:33;3.70;;;2.92;;
9716;SDS011;4897;43.570;27.832;2023-08-06T09:05:00;5.90;;;3.20;;
9716;SDS011;4897;43.570;27.832;2023-08-06T09:07:29;4.28;;;2.90;;
9716;SDS011;4897;43.570;27.832;2023-08-06T09:09:59;3.42;;;2.70;;
9716;SDS011;4897;43.570;27.832;2023-08-06T09:12:30;4.93;;;3.08;;
9716;SDS011;4897;43.570;27.832;2023-08-06T09:14:57;4.90;;;2.80;;
9716;SDS011;4897;43.570;27.832;2023-08-06T09:17:25;6.35;;;2.60;;
9716;SDS011;4897;43.570;27.832;2023-08-06T09:19:53;4.47;;;2.60;;
9716;SDS011;4897;43.570;27.832;2023-08-06T09:22:20;6.03;;;2.90;;
9716;SDS011;4897;43.570;27.832;2023-08-06T09:24:47;4.28;;;2.65;;
9716;SDS011;4897;43.570;27.832;2023-08-06T09:27:14;8.20;;;2.78;;
9716;SDS011;4897;43.570;27.832;2023-08-06T09:29:42;5.40;;;3.10;;
9716;SDS011;4897;43.570;27.832;2023-08-06T09:32:10;5.22;;;2.97;;
9716;SDS011;4897;43.570;27.832;2023-08-06T09:34:39;7.43;;;3.20;;
9716;SDS011;4897;43.570;27.832;2023-08-06T09:37:08;8.75;;;4.05;;
9716;SDS011;4897;43.570;27.832;2023-08-06T09:39:37;5.65;;;3.03;;
9716;SDS011;4897;43.570;27.832;2023-08-06T09:42:04;5.30;;;3.10;;
9716;SDS011;4897;43.570;27.832;2023-08-06T09:44:32;5.18;;;3.47;;
9716;SDS011;4897;43.570;27.832;2023-08-06T09:47:00;4.40;;;2.90;;
9716;SDS011;4897;43.570;27.832;2023-08-06T09:49:28;4.00;;;3.00;;
9716;SDS011;4897;43.570;27.832;2023-08-06T09:52:10;4.85;;;3.03;;
9716;SDS011;4897;43.570;27.832;2023-08-06T09:54:38;4.25;;;3.10;;
9716;SDS011;4897;43.570;27.832;2023-08-06T09:57:05;5.97;;;2.97;;
9716;SDS011;4897;43.570;27.832;2023-08-06T09:59:35;5.35;;;3.05;;
9716;SDS011;4897;43.570;27.832;2023-08-06T10:02:10;6.60;;;3.10;;
9716;SDS011;4897;43.570;27.832;2023-08-06T10:04:39;6.18;;;2.80;;
9716;SDS011;4897;43.570;27.832;2023-08-06T10:07:08;5.82;;;2.95;;
9716;SDS011;4897;43.570;27.832;2023-08-06T10:09:35;4.55;;;2.78;;
9716;SDS011;4897;43.570;27.832;2023-08-06T10:12:02;5.60;;;3.00;;
9716;SDS011;4897;43.570;27.832;2023-08-06T10:14:30;3.67;;;2.80;;
9716;SDS011;4897;43.570;27.832;2023-08-06T10:16:59;4.85;;;2.90;;
9716;SDS011;4897;43.570;27.832;2023-08-06T10:19:27;3.95;;;2.72;;
9716;SDS011;4897;43.570;27.832;2023-08-06T10:22:12;8.85;;;3.38;;
9716;SDS011;4897;43.570;27.832;2023-08-06T10:24:50;4.22;;;3.13;;
9716;SDS011;4897;43.570;27.832;2023-08-06T10:27:21;4.28;;;3.13;;
9716;SDS011;4897;43.570;27.832;2023-08-06T10:29:49;4.05;;;2.90;;
9716;SDS011;4897;43.570;27.832;2023-08-06T10:32:16;4.80;;;3.45;;
9716;SDS011;4897;43.570;27.832;2023-08-06T10:34:54;5.38;;;3.47;;
9716;SDS011;4897;43.570;27.832;2023-08-06T10:37:25;4.43;;;3.28;;
9716;SDS011;4897;43.570;27.832;2023-08-06T10:40:01;5.07;;;3.55;;
9716;SDS011;4897;43.570;27.832;2023-08-06T10:42:29;5.45;;;3.60;;
9716;SDS011;4897;43.570;27.832;2023-08-06T10:45:16;6.70;;;3.55;;
9716;SDS011;4897;43.570;27.832;2023-08-06T10:47:44;5.28;;;3.30;;
9716;SDS011;4897;43.570;27.832;2023-08-06T10:50:12;4.18;;;3.10;;
9716;SDS011;4897;43.570;27.832;2023-08-06T10:52:44;5.05;;;3.30;;
9716;SDS011;4897;43.570;27.832;2023-08-06T10:55:11;4.35;;;3.17;;
9716;SDS011;4897;43.570;27.832;2023-08-06T10:57:39;7.25;;;3.67;;
9716;SDS011;4897;43.570;27.832;2023-08-06T11:00:06;4.85;;;4.00;;
9716;SDS011;4897;43.570;27.832;2023-08-06T11:02:34;4.95;;;3.80;;
9716;SDS011;4897;43.570;27.832;2023-08-06T11:05:06;6.97;;;3.50;;
9716;SDS011;4897;43.570;27.832;2023-08-06T11:07:33;3.35;;;3.05;;
9716;SDS011;4897;43.570;27.832;2023-08-06T11:10:03;4.28;;;3.17;;
9716;SDS011;4897;43.570;27.832;2023-08-06T11:12:30;4.00;;;2.95;;
9716;SDS011;4897;43.570;27.832;2023-08-06T11:14:58;3.22;;;2.90;;
9716;SDS011;4897;43.570;27.832;2023-08-06T11:17:25;4.88;;;3.00;;
9716;SDS011;4897;43.570;27.832;2023-08-06T11:19:53;4.63;;;3.15;;
9716;SDS011;4897;43.570;27.832;2023-08-06T11:22:20;5.90;;;3.03;;
9716;SDS011;4897;43.570;27.832;2023-08-06T11:24:47;3.70;;;2.90;;
9716;SDS011;4897;43.570;27.832;2023-08-06T11:27:16;7.88;;;3.10;;
9716;SDS011;4897;43.570;27.832;2023-08-06T11:29:49;4.45;;;2.58;;
9716;SDS011;4897;43.570;27.832;2023-08-06T11:32:16;3.05;;;2.63;;
9716;SDS011;4897;43.570;27.832;2023-08-06T11:34:43;3.10;;;2.50;;
9716;SDS011;4897;43.570;27.832;2023-08-06T11:37:10;5.00;;;3.08;;
9716;SDS011;4897;43.570;27.832;2023-08-06T11:39:38;3.42;;;2.75;;
9716;SDS011;4897;43.570;27.832;2023-08-06T11:42:10;6.72;;;2.70;;
9716;SDS011;4897;43.570;27.832;2023-08-06T11:44:40;5.53;;;3.33;;
9716;SDS011;4897;43.570;27.832;2023-08-06T11:47:11;6.82;;;3.20;;
9716;SDS011;4897;43.570;27.832;2023-08-06T11:49:40;4.40;;;3.40;;
9716;SDS011;4897;43.570;27.832;2023-08-06T11:52:13;5.10;;;3.50;;
9716;SDS011;4897;43.570;27.832;2023-08-06T11:54:44;7.80;;;3.97;;
9716;SDS011;4897;43.570;27.832;2023-08-06T11:57:11;5.38;;;3.83;;
9716;SDS011;4897;43.570;27.832;2023-08-06T11:59:39;5.47;;;4.20;;
9716;SDS011;4897;43.570;27.832;2023-08-06T12:02:09;5.65;;;4.13;;
9716;SDS011;4897;43.570;27.832;2023-08-06T12:07:30;8.75;;;4.32;;
9716;SDS011;4897;43.570;27.832;2023-08-06T12:09:57;17.90;;;5.43;;
9716;SDS011;4897;43.570;27.832;2023-08-06T12:12:25;12.90;;;4.32;;
9716;SDS011;4897;43.570;27.832;2023-08-06T12:14:53;5.45;;;3.80;;
9716;SDS011;4897;43.570;27.832;2023-08-06T12:17:20;36.33;;;5.20;;
9716;SDS011;4897;43.570;27.832;2023-08-06T12:19:47;26.02;;;4.15;;
9716;SDS011;4897;43.570;27.832;2023-08-06T12:22:15;15.90;;;3.30;;
9716;SDS011;4897;43.570;27.832;2023-08-06T12:24:42;10.65;;;3.25;;
9716;SDS011;4897;43.570;27.832;2023-08-06T12:27:10;11.48;;;4.40;;
9716;SDS011;4897;43.570;27.832;2023-08-06T12:29:37;11.85;;;4.43;;
9716;SDS011;4897;43.570;27.832;2023-08-06T12:32:08;7.25;;;4.25;;
9716;SDS011;4897;43.570;27.832;2023-08-06T12:34:37;10.77;;;5.28;;
9716;SDS011;4897;43.570;27.832;2023-08-06T12:37:04;10.27;;;5.78;;
9716;SDS011;4897;43.570;27.832;2023-08-06T12:39:32;10.88;;;5.40;;
9716;SDS011;4897;43.570;27.832;2023-08-06T12:41:59;9.10;;;4.93;;
9716;SDS011;4897;43.570;27.832;2023-08-06T12:44:26;9.35;;;5.38;;
9716;SDS011;4897;43.570;27.832;2023-08-06T12:46:54;10.43;;;5.38;;
9716;SDS011;4897;43.570;27.832;2023-08-06T12:49:22;9.38;;;5.20;;
9716;SDS011;4897;43.570;27.832;2023-08-06T12:51:50;5.97;;;5.00;;
9716;SDS011;4897;43.570;27.832;2023-08-06T12:54:20;9.93;;;5.30;;
9716;SDS011;4897;43.570;27.832;2023-08-06T12:56:47;6.55;;;4.80;;
9716;SDS011;4897;43.570;27.832;2023-08-06T12:59:16;9.30;;;5.28;;
9716;SDS011;4897;43.570;27.832;2023-08-06T13:01:44;6.78;;;4.57;;
9716;SDS011;4897;43.570;27.832;2023-08-06T13:04:11;8.27;;;4.43;;
9716;SDS011;4897;43.570;27.832;2023-08-06T13:06:40;6.13;;;4.32;;
9716;SDS011;4897;43.570;27.832;2023-08-06T13:09:07;6.90;;;4.35;;
9716;SDS011;4897;43.570;27.832;2023-08-06T13:11:36;5.80;;;3.83;;
9716;SDS011;4897;43.570;27.832;2023-08-06T13:14:05;5.32;;;3.88;;
9716;SDS011;4897;43.570;27.832;2023-08-06T13:16:35;6.78;;;3.42;;
9716;SDS011;4897;43.570;27.832;2023-08-06T13:19:09;5.15;;;3.75;;
9716;SDS011;4897;43.570;27.832;2023-08-06T13:21:58;6.60;;;3.80;;
9716;SDS011;4897;43.570;27.832;2023-08-06T13:24:27;9.50;;;3.40;;
9716;SDS011;4897;43.570;27.832;2023-08-06T13:26:57;5.15;;;3.10;;
9716;SDS011;4897;43.570;27.832;2023-08-06T13:29:28;4.85;;;2.92;;
9716;SDS011;4897;43.570;27.832;2023-08-06T13:31:58;3.28;;;2.50;;
9716;SDS011;4897;43.570;27.832;2023-08-06T13:34:25;3.95;;;2.80;;
9716;SDS011;4897;43.570;27.832;2023-08-06T13:36:53;3.55;;;2.88;;
9716;SDS011;4897;43.570;27.832;2023-08-06T13:39:20;3.38;;;2.95;;
9716;SDS011;4897;43.570;27.832;2023-08-06T13:41:50;3.55;;;2.88;;
9716;SDS011;4897;43.570;27.832;2023-08-06T13:44:17;4.90;;;2.80;;
9716;SDS011;4897;43.570;27.832;2023-08-06T13:46:44;4.22;;;2.78;;
9716;SDS011;4897;43.570;27.832;2023-08-06T13:49:11;3.75;;;2.75;;
9716;SDS011;4897;43.570;27.832;2023-08-06T13:51:38;3.00;;;2.70;;
9716;SDS011;4897;43.570;27.832;2023-08-06T13:54:06;2.58;;;2.30;;
9716;SDS011;4897;43.570;27.832;2023-08-06T13:56:34;3.63;;;2.53;;
9716;SDS011;4897;43.570;27.832;2023-08-06T13:59:02;3.90;;;2.35;;
9716;SDS011;4897;43.570;27.832;2023-08-06T14:01:30;2.95;;;2.40;;
9716;SDS011;4897;43.570;27.832;2023-08-06T14:03:57;3.35;;;2.45;;
9716;SDS011;4897;43.570;27.832;2023-08-06T14:06:24;4.53;;;2.30;;
9716;SDS011;4897;43.570;27.832;2023-08-06T14:08:51;2.53;;;2.20;;
9716;SDS011;4897;43.570;27.832;2023-08-06T14:11:19;2.42;;;2.10;;
9716;SDS011;4897;43.570;27.832;2023-08-06T14:13:46;10.20;;;2.58;;
9716;SDS011;4897;43.570;27.832;2023-08-06T14:16:13;3.05;;;2.50;;
9716;SDS011;4897;43.570;27.832;2023-08-06T14:18:40;5.10;;;2.50;;
9716;SDS011;4897;43.570;27.832;2023-08-06T14:21:07;3.63;;;2.67;;
9716;SDS011;4897;43.570;27.832;2023-08-06T14:23:34;4.82;;;2.72;;
9716;SDS011;4897;43.570;27.832;2023-08-06T14:26:01;3.03;;;2.50;;
9716;SDS011;4897;43.570;27.832;2023-08-06T14:28:30;4.20;;;2.55;;
9716;SDS011;4897;43.570;27.832;2023-08-06T14:30:57;5.93;;;2.80;;
9716;SDS011;4897;43.570;27.832;2023-08-06T14:33:24;3.05;;;2.50;;
9716;SDS011;4897;43.570;27.832;2023-08-06T14:35:51;5.13;;;2.33;;
9716;SDS011;4897;43.570;27.832;2023-08-06T14:38:18;3.22;;;2.45;;
9716;SDS011;4897;43.570;27.832;2023-08-06T14:40:45;2.75;;;2.13;;
9716;SDS011;4897;43.570;27.832;2023-08-06T14:43:12;3.28;;;2.40;;
9716;SDS011;4897;43.570;27.832;2023-08-06T14:45:44;4.18;;;2.60;;
9716;SDS011;4897;43.570;27.832;2023-08-06T14:48:11;3.88;;;2.50;;
9716;SDS011;4897;43.570;27.832;2023-08-06T14:50:38;4.30;;;2.70;;
9716;SDS011;4897;43.570;27.832;2023-08-06T14:53:06;8.57;;;2.72;;
9716;SDS011;4897;43.570;27.832;2023-08-06T14:55:35;4.10;;;2.80;;
9716;SDS011;4897;43.570;27.832;2023-08-06T14:58:02;6.30;;;2.65;;
9716;SDS011;4897;43.570;27.832;2023-08-06T15:00:30;4.68;;;3.15;;